Terminal Aerodrome Forecast
Issued by NWS

Home | Current Version | Previous Version | Text Only | Print | Product List | Glossary On
Versions: 1 2 3 4 5 6 7 8 9 10 11 12 13 14 15
000
FTUS46 KPQR 171139
TAFONP
TAF
KONP 171139Z 1712/1812 VRB03KT 4SM BR SCT007 OVC018
     FM171700 20010KT 3SM -RA BR BKN012 OVC020
     FM172200 28007KT P6SM VCSH BKN020 BKN045
     FM180400 VRB03KT 3SM BR BKN010=

USA.gov is the U.S. government's official web portal to all federal, state and local government web resources and services.